createdAt,value
2018-05-10T00:00:22.538Z,1593.00
2018-05-10T00:01:22.545Z,1515.10
2018-05-10T00:02:22.550Z,1534.10
2018-05-10T00:03:22.556Z,1537.20
2018-05-10T00:04:22.562Z,1554.80
2018-05-10T00:05:22.568Z,1512.20
2018-05-10T00:06:22.575Z,1540.40
2018-05-10T00:07:22.581Z,1590.20
2018-05-10T00:08:22.587Z,1554.90
2018-05-10T00:09:22.592Z,1562.90
2018-05-10T00:10:22.599Z,1550.90
2018-05-10T00:11:22.605Z,1556.20
2018-05-10T00:12:22.610Z,1561.70
2018-05-10T00:13:22.616Z,1554.10
2018-05-10T00:14:22.625Z,1529.80
2018-05-10T00:15:22.629Z,1573.40
2018-05-10T00:16:22.633Z,1521.70
2018-05-10T00:17:22.640Z,1537.90
2018-05-10T00:18:22.650Z,1521.70
2018-05-10T00:19:22.651Z,1524.70
2018-05-10T00:20:22.658Z,1552.90
2018-05-10T00:21:22.664Z,1553.20
2018-05-10T00:22:22.670Z,1567.50
2018-05-10T00:23:22.675Z,1561.90
2018-05-10T00:24:22.739Z,1575.10
2018-05-10T00:25:22.688Z,1544.10
2018-05-10T00:26:22.693Z,1547.00
2018-05-10T00:27:22.699Z,1582.00
2018-05-10T00:28:22.703Z,1594.70
2018-05-10T00:29:22.710Z,1583.50
2018-05-10T00:30:22.715Z,1570.90
2018-05-10T00:31:22.723Z,1593.60
2018-05-10T00:32:22.726Z,1501.00
2018-05-10T00:33:22.730Z,1558.20
2018-05-10T00:34:22.738Z,1570.70
2018-05-10T00:35:22.744Z,1531.90
2018-05-10T00:36:22.749Z,1574.20
2018-05-10T00:37:22.753Z,1607.50
2018-05-10T00:38:22.760Z,1586.40
2018-05-10T00:39:22.767Z,1570.20
2018-05-10T00:40:22.771Z,1598.30
2018-05-10T00:41:22.777Z,1624.90
2018-05-10T00:42:22.782Z,1614.00
2018-05-10T00:43:22.788Z,1641.70
2018-05-10T00:44:22.792Z,1589.90
2018-05-10T00:45:22.798Z,1592.60
2018-05-10T00:46:22.804Z,1569.00
2018-05-10T00:47:22.808Z,1597.40
2018-05-10T00:48:22.813Z,1591.20
2018-05-10T00:49:22.819Z,1615.20
2018-05-10T00:50:22.824Z,1596.00
2018-05-10T00:51:22.829Z,1579.00
2018-05-10T00:52:22.834Z,1595.50
2018-05-10T00:53:22.839Z,1564.40
2018-05-10T00:54:22.846Z,1594.50
2018-05-10T00:55:22.851Z,1628.50
2018-05-10T00:56:22.855Z,1589.30
2018-05-10T00:57:22.859Z,1623.80
2018-05-10T00:58:22.868Z,1648.50
2018-05-10T00:59:22.871Z,1612.70
2018-05-10T01:00:22.875Z,1617.00
2018-05-10T01:01:22.880Z,1557.10
2018-05-10T01:02:22.885Z,1578.90
2018-05-10T01:03:22.890Z,1622.90
2018-05-10T01:04:22.895Z,1631.30
2018-05-10T01:05:22.900Z,1616.10
2018-05-10T01:06:22.905Z,1581.60
2018-05-10T01:07:22.910Z,1607.60
2018-05-10T01:08:22.915Z,1579.20
2018-05-10T01:09:22.919Z,1594.60
2018-05-10T01:10:22.924Z,1610.20
2018-05-10T01:11:22.930Z,1569.50
2018-05-10T01:12:22.934Z,1606.60
2018-05-10T01:13:22.938Z,1619.70
2018-05-10T01:14:22.946Z,1600.80
2018-05-10T01:15:22.948Z,1590.90
2018-05-10T01:16:22.952Z,1572.70
2018-05-10T01:17:22.957Z,1638.00
2018-05-10T01:18:22.961Z,1597.50
2018-05-10T01:19:22.966Z,1542.40
2018-05-10T01:20:22.974Z,1639.10
2018-05-10T01:21:22.975Z,1679.80
2018-05-10T01:22:22.980Z,1575.20
2018-05-10T01:23:22.984Z,1634.90
2018-05-10T01:24:22.988Z,1594.20
2018-05-10T01:25:22.993Z,1615.50
2018-05-10T01:26:22.999Z,1595.50
2018-05-10T01:27:23.001Z,1581.60
2018-05-10T01:28:23.004Z,1643.20
2018-05-10T01:29:23.010Z,1630.80
2018-05-10T01:30:23.013Z,1602.70
2018-05-10T01:31:23.018Z,1598.30
2018-05-10T01:32:23.022Z,1614.20
2018-05-10T01:33:23.026Z,1615.60
2018-05-10T01:34:23.076Z,1595.10
2018-05-10T01:35:23.041Z,1586.90
2018-05-10T01:36:23.037Z,1603.10
2018-05-10T01:37:23.043Z,1662.00
2018-05-10T01:38:23.047Z,1590.80
2018-05-10T01:39:23.051Z,1628.20
2018-05-10T01:40:23.054Z,1562.30
2018-05-10T01:41:23.061Z,1572.60
2018-05-10T01:42:23.063Z,1541.70
2018-05-10T01:43:23.069Z,1551.50
2018-05-10T01:44:23.071Z,1546.80
2018-05-10T01:45:23.075Z,1582.40
2018-05-10T01:46:23.079Z,1594.80
2018-05-10T01:47:23.083Z,1601.70
2018-05-10T01:48:23.088Z,1546.90
2018-05-10T01:49:23.091Z,1554.40
2018-05-10T01:50:23.095Z,1555.50
2018-05-10T01:51:23.099Z,1597.20
2018-05-10T01:52:23.101Z,1565.90
2018-05-10T01:53:23.107Z,1605.70
2018-05-10T01:54:23.110Z,1534.40
2018-05-10T01:55:23.114Z,1608.80
2018-05-10T01:56:23.117Z,1627.00
2018-05-10T01:57:23.121Z,1584.50
2018-05-10T01:58:23.125Z,1706.90
2018-05-10T01:59:23.129Z,1597.20
2018-05-10T02:00:23.132Z,1663.70
2018-05-10T02:01:23.136Z,1644.60
2018-05-10T02:02:23.140Z,1555.70
2018-05-10T02:03:23.144Z,1530.80
2018-05-10T02:04:23.147Z,1533.70
2018-05-10T02:05:23.150Z,1532.50
2018-05-10T02:06:23.154Z,1554.50
2018-05-10T02:07:23.158Z,1657.10
2018-05-10T02:08:23.161Z,1527.60
2018-05-10T02:09:23.165Z,1564.40
2018-05-10T02:10:23.169Z,1602.50
2018-05-10T02:11:23.173Z,1601.20
2018-05-10T02:12:23.175Z,1525.30
2018-05-10T02:13:23.179Z,1689.20
2018-05-10T02:14:23.183Z,1633.90
2018-05-10T02:15:23.186Z,1766.70
2018-05-10T02:16:23.190Z,1669.70
2018-05-10T02:17:23.194Z,1479.50
2018-05-10T02:18:23.200Z,1532.50
2018-05-10T02:19:23.204Z,1575.40
2018-05-10T02:20:23.203Z,1518.20
2018-05-10T02:21:23.207Z,1462.40
2018-05-10T02:22:23.210Z,1529.40
2018-05-10T02:23:23.214Z,1491.90
2018-05-10T02:24:23.221Z,1500.00
2018-05-10T02:25:23.220Z,1465.00
2018-05-10T02:26:23.228Z,1516.60
2018-05-10T02:27:23.228Z,1559.00
2018-05-10T02:28:23.233Z,1506.70
2018-05-10T02:29:23.234Z,1516.00
2018-05-10T02:30:23.238Z,1442.00
2018-05-10T02:31:23.243Z,1457.80
2018-05-10T02:32:23.243Z,1470.90
2018-05-10T02:33:23.248Z,1429.20
2018-05-10T02:34:23.255Z,1409.40
2018-05-10T02:35:23.255Z,1413.90
2018-05-10T02:36:23.351Z,1437.40
2018-05-10T02:37:23.262Z,1544.90
2018-05-10T02:38:23.264Z,1779.20
2018-05-10T02:39:23.366Z,1488.50
2018-05-10T02:40:23.272Z,1578.30
2018-05-10T02:41:23.274Z,1395.40
2018-05-10T02:42:23.281Z,1442.50
2018-05-10T02:43:23.281Z,1363.70
2018-05-10T02:44:23.286Z,1357.70
2018-05-10T02:45:23.287Z,1350.80
2018-05-10T02:46:23.293Z,1342.00
2018-05-10T02:47:23.293Z,1383.10
2018-05-10T02:48:23.296Z,1334.30
2018-05-10T02:49:23.299Z,1375.20
2018-05-10T02:50:23.303Z,1316.60
2018-05-10T02:51:23.305Z,1311.40
2018-05-10T02:52:23.308Z,1381.80
2018-05-10T02:53:23.312Z,1338.10
2018-05-10T02:54:23.315Z,1296.20
2018-05-10T02:55:23.318Z,1291.90
2018-05-10T02:56:23.321Z,1303.50
2018-05-10T02:57:23.324Z,1314.50
2018-05-10T02:58:23.327Z,1287.90
2018-05-10T02:59:23.333Z,1288.00
2018-05-10T03:00:23.332Z,1290.00
2018-05-10T03:01:23.339Z,1254.40
2018-05-10T03:02:23.341Z,1291.50
2018-05-10T03:03:23.341Z,1310.80
2018-05-10T03:04:23.345Z,1287.60
2018-05-10T03:05:23.348Z,1287.90
2018-05-10T03:06:23.351Z,1285.00
2018-05-10T03:07:23.356Z,1254.00
2018-05-10T03:08:23.357Z,1287.70
2018-05-10T03:09:23.360Z,1298.40
2018-05-10T03:10:23.364Z,1281.80
2018-05-10T03:11:23.367Z,1259.20
2018-05-10T03:12:23.369Z,1267.30
2018-05-10T03:13:23.373Z,1266.40
2018-05-10T03:14:23.377Z,1246.30
2018-05-10T03:15:23.379Z,1247.00
2018-05-10T03:16:23.382Z,1237.30
2018-05-10T03:17:23.388Z,1239.10
2018-05-10T03:18:23.389Z,1228.80
2018-05-10T03:19:23.392Z,1244.20
2018-05-10T03:20:23.394Z,1230.00
2018-05-10T03:21:23.398Z,1247.00
2018-05-10T03:22:23.399Z,1257.80
2018-05-10T03:23:23.410Z,1240.80
2018-05-10T03:24:23.404Z,1224.80
2018-05-10T03:25:23.409Z,1270.80
2018-05-10T03:26:23.414Z,1231.00
2018-05-10T03:27:23.416Z,1223.80
2018-05-10T03:28:23.418Z,1257.90
2018-05-10T03:29:23.420Z,1240.30
2018-05-10T03:30:23.424Z,1264.80
2018-05-10T03:31:23.427Z,1232.90
2018-05-10T03:32:23.435Z,1218.30
2018-05-10T03:33:23.520Z,1258.30
2018-05-10T03:34:23.438Z,1220.10
2018-05-10T03:35:23.439Z,1237.70
2018-05-10T03:36:23.440Z,1147.60
2018-05-10T03:37:23.444Z,1114.00
2018-05-10T03:38:23.447Z,1081.70
2018-05-10T03:39:23.450Z,1097.00
2018-05-10T03:40:23.503Z,1043.60
2018-05-10T03:41:23.453Z,1097.80
2018-05-10T03:42:23.459Z,1043.50
2018-05-10T03:43:23.460Z,1144.20
2018-05-10T03:44:23.463Z,1028.70
2018-05-10T03:45:23.465Z,1036.70
2018-05-10T03:46:23.479Z,1092.00
2018-05-10T03:47:23.472Z,1115.60
2018-05-10T03:48:23.475Z,1113.30
2018-05-10T03:49:23.476Z,988.90
2018-05-10T03:50:23.479Z,1007.40
2018-05-10T03:51:23.482Z,1047.60
2018-05-10T03:52:23.484Z,1999.90
2018-05-10T03:53:23.487Z,1016.80
2018-05-10T03:54:23.490Z,966.40
2018-05-10T03:55:23.493Z,942.20
2018-05-10T03:56:23.493Z,973.10
2018-05-10T03:57:23.497Z,1039.20
2018-05-10T03:58:23.499Z,991.70
2018-05-10T03:59:23.503Z,1081.50
2018-05-10T04:00:23.505Z,1757.50
2018-05-10T04:01:23.507Z,1047.70
2018-05-10T04:02:23.509Z,952.20
2018-05-10T04:03:23.512Z,975.10
2018-05-10T04:04:23.515Z,1356.00
2018-05-10T04:05:23.516Z,1398.60
2018-05-10T04:06:23.520Z,1065.40
2018-05-10T04:07:23.522Z,996.30
2018-05-10T04:08:23.523Z,1915.30
2018-05-10T04:09:23.526Z,1018.20
2018-05-10T04:10:23.530Z,1558.60
2018-05-10T04:11:23.530Z,1263.70
2018-05-10T04:12:23.538Z,1043.60
2018-05-10T04:13:23.536Z,1200.80
2018-05-10T04:14:23.538Z,1718.10
2018-05-10T04:15:23.540Z,1242.50
2018-05-10T04:16:23.542Z,1092.90
2018-05-10T04:17:23.544Z,1199.50
2018-05-10T04:18:23.547Z,1409.40
2018-05-10T04:19:23.549Z,1179.70
2018-05-10T04:20:23.551Z,1120.20
2018-05-10T04:21:23.554Z,1095.40
2018-05-10T04:22:23.555Z,1109.70
2018-05-10T04:23:23.557Z,1105.60
2018-05-10T04:24:23.559Z,1068.70
2018-05-10T04:25:23.561Z,1000.70
2018-05-10T04:26:23.564Z,1263.80
2018-05-10T04:27:23.566Z,1562.60
2018-05-10T04:28:23.568Z,1715.00
2018-05-10T04:29:23.572Z,1153.70
2018-05-10T04:30:23.573Z,1118.20
2018-05-10T04:31:23.582Z,1067.60
2018-05-10T04:32:23.576Z,1316.20
2018-05-10T04:33:23.579Z,1162.80
2018-05-10T04:34:23.582Z,1520.50
2018-05-10T04:35:23.584Z,1133.50
2018-05-10T04:36:23.595Z,1196.70
2018-05-10T04:37:23.592Z,1844.00
2018-05-10T04:38:23.592Z,1128.10
2018-05-10T04:39:23.593Z,1213.40
2018-05-10T04:40:23.594Z,1156.30
2018-05-10T04:41:23.596Z,1180.90
2018-05-10T04:42:23.599Z,1366.60
2018-05-10T04:43:23.602Z,1999.90
2018-05-10T04:44:23.602Z,1307.30
2018-05-10T04:45:23.605Z,1388.50
2018-05-10T04:46:23.610Z,1538.00
2018-05-10T04:47:23.616Z,1415.90
2018-05-10T04:48:23.614Z,1158.20
2018-05-10T04:49:23.612Z,1183.00
2018-05-10T04:50:23.615Z,1616.00
2018-05-10T04:51:23.617Z,1257.30
2018-05-10T04:52:23.618Z,1213.80
2018-05-10T04:53:23.621Z,1169.80
2018-05-10T04:54:23.624Z,1270.40
2018-05-10T04:55:23.625Z,1148.10
2018-05-10T04:56:23.626Z,1776.50
2018-05-10T04:57:23.629Z,1585.50
2018-05-10T04:58:23.631Z,1236.00
2018-05-10T04:59:23.633Z,1172.00
2018-05-10T05:00:23.634Z,1144.10
2018-05-10T05:01:23.637Z,1304.20
2018-05-10T05:02:23.643Z,1999.90
2018-05-10T05:03:23.725Z,1383.80
2018-05-10T05:04:23.643Z,1181.00
2018-05-10T05:05:23.644Z,1379.70
2018-05-10T05:06:23.646Z,1183.30
2018-05-10T05:07:23.649Z,1517.90
2018-05-10T05:08:23.650Z,1337.60
2018-05-10T05:09:23.652Z,1467.80
2018-05-10T05:10:23.656Z,1138.10
2018-05-10T05:11:23.657Z,1124.60
2018-05-10T05:12:23.658Z,1245.10
2018-05-10T05:13:23.659Z,1180.10
2018-05-10T05:14:23.661Z,1255.30
2018-05-10T05:15:23.664Z,1618.50
2018-05-10T05:16:23.666Z,1125.20
2018-05-10T05:17:23.667Z,1211.40
2018-05-10T05:18:23.670Z,1431.60
2018-05-10T05:19:23.670Z,1627.80
2018-05-10T05:20:23.673Z,1374.50
2018-05-10T05:21:23.679Z,1324.80
2018-05-10T05:22:23.678Z,1306.70
2018-05-10T05:23:23.679Z,1513.10
2018-05-10T05:24:23.680Z,1617.40
2018-05-10T05:25:23.683Z,1929.00
2018-05-10T05:26:23.685Z,1458.30
2018-05-10T05:27:23.687Z,1500.70
2018-05-10T05:28:23.688Z,1258.80
2018-05-10T05:29:23.690Z,1366.40
2018-05-10T05:30:23.692Z,1405.60
2018-05-10T05:31:23.694Z,1269.20
2018-05-10T05:32:23.697Z,1237.40
2018-05-10T05:33:23.697Z,1300.80
2018-05-10T05:34:23.700Z,1602.70
2018-05-10T05:35:23.702Z,1451.60
2018-05-10T05:36:23.704Z,1261.90
2018-05-10T05:37:23.706Z,1365.80
2018-05-10T05:38:23.707Z,1626.90
2018-05-10T05:39:23.710Z,1404.70
2018-05-10T05:40:23.710Z,1520.30
2018-05-10T05:41:23.799Z,1389.50
2018-05-10T05:42:23.716Z,1554.40
2018-05-10T05:43:23.769Z,1368.60
2018-05-10T05:44:23.720Z,1801.50
2018-05-10T05:45:23.722Z,1732.50
2018-05-10T05:46:23.724Z,1826.50
2018-05-10T05:47:23.730Z,1479.90
2018-05-10T05:48:23.731Z,1403.90
2018-05-10T05:49:23.731Z,1718.70
2018-05-10T05:50:23.733Z,1380.40
2018-05-10T05:51:23.736Z,1401.60
2018-05-10T05:52:23.737Z,1262.40
2018-05-10T05:53:23.740Z,1227.30
2018-05-10T05:54:23.742Z,1180.80
2018-05-10T05:55:23.746Z,1476.70
2018-05-10T05:56:23.745Z,1325.40
2018-05-10T05:57:23.748Z,1216.50
2018-05-10T05:58:23.750Z,1329.20
2018-05-10T05:59:23.753Z,1480.80
2018-05-10T06:00:23.753Z,1709.30
2018-05-10T06:01:23.757Z,1479.40
2018-05-10T06:02:23.761Z,1466.90
2018-05-10T06:03:23.762Z,1418.90
2018-05-10T06:04:23.764Z,1304.20
2018-05-10T06:05:23.766Z,1238.10
2018-05-10T06:06:23.768Z,1327.50
2018-05-10T06:07:23.771Z,1478.10
2018-05-10T06:08:23.774Z,1241.50
2018-05-10T06:09:23.775Z,1407.40
2018-05-10T06:10:23.777Z,1390.40
2018-05-10T06:11:23.779Z,1326.90
2018-05-10T06:12:23.781Z,1290.90
2018-05-10T06:13:23.789Z,1260.90
2018-05-10T06:14:23.787Z,1401.30
2018-05-10T06:15:23.792Z,1439.80
2018-05-10T06:16:23.794Z,1504.90
2018-05-10T06:17:23.793Z,1460.50
2018-05-10T06:18:23.796Z,1645.10
2018-05-10T06:19:23.798Z,1517.50
2018-05-10T06:20:23.799Z,1328.80
2018-05-10T06:21:23.807Z,1301.30
2018-05-10T06:22:23.805Z,1310.90
2018-05-10T06:23:23.808Z,1504.10
2018-05-10T06:24:23.809Z,1835.10
2018-05-10T06:25:23.812Z,1249.10
2018-05-10T06:26:23.815Z,1364.90
2018-05-10T06:27:23.819Z,1502.20
2018-05-10T06:28:23.819Z,1495.30
2018-05-10T06:29:23.826Z,1489.20
2018-05-10T06:30:23.825Z,1355.20
2018-05-10T06:31:23.832Z,1290.10
2018-05-10T06:32:23.829Z,1326.30
2018-05-10T06:33:23.831Z,1341.90
2018-05-10T06:34:23.834Z,1302.00
2018-05-10T06:35:23.838Z,1285.20
2018-05-10T06:36:23.839Z,1341.30
2018-05-10T06:37:23.842Z,1524.90
2018-05-10T06:38:23.845Z,1466.10
2018-05-10T06:39:23.848Z,1395.00
2018-05-10T06:40:23.851Z,1606.50
2018-05-10T06:41:23.898Z,1676.20
2018-05-10T06:42:23.857Z,1647.20
2018-05-10T06:43:23.860Z,1587.90
2018-05-10T06:44:23.862Z,1954.30
2018-05-10T06:45:23.866Z,1717.80
2018-05-10T06:46:23.869Z,1749.80
2018-05-10T06:47:23.874Z,1895.50
2018-05-10T06:48:23.875Z,1866.70
2018-05-10T06:49:23.879Z,1913.40
2018-05-10T06:50:23.883Z,1776.70
2018-05-10T06:51:23.886Z,1891.60
2018-05-10T06:52:23.890Z,1564.40
2018-05-10T06:53:23.892Z,1717.30
2018-05-10T06:54:23.896Z,1661.40
2018-05-10T06:55:23.899Z,1475.10
2018-05-10T06:56:23.905Z,1553.40
2018-05-10T06:57:23.909Z,1552.40
2018-05-10T06:58:23.910Z,1440.90
2018-05-10T06:59:23.914Z,1508.80
2018-05-10T07:00:23.925Z,1381.40
2018-05-10T07:01:23.920Z,1475.80
2018-05-10T07:02:23.925Z,1584.60
2018-05-10T07:03:24.029Z,1893.20
2018-05-10T07:04:23.932Z,1913.50
2018-05-10T07:05:23.936Z,1861.10
2018-05-10T07:06:23.939Z,1999.90
2018-05-10T07:07:23.944Z,1824.60
2018-05-10T07:08:23.952Z,1790.50
2018-05-10T07:09:23.983Z,1984.00
2018-05-10T07:10:23.960Z,1908.10
2018-05-10T07:11:23.961Z,1999.90
2018-05-10T07:12:23.964Z,1999.90
2018-05-10T07:13:23.968Z,1700.10
2018-05-10T07:14:23.973Z,1999.90
2018-05-10T07:15:23.980Z,1762.20
2018-05-10T07:16:23.983Z,1792.90
2018-05-10T07:17:23.986Z,1831.80
2018-05-10T07:18:23.991Z,1999.90
2018-05-10T07:19:23.998Z,1999.90
2018-05-10T07:20:24.000Z,1740.80
2018-05-10T07:21:24.005Z,1817.90
2018-05-10T07:22:24.011Z,1801.00
2018-05-10T07:23:24.014Z,1773.00
2018-05-10T07:24:24.020Z,1917.80
2018-05-10T07:25:24.090Z,1999.90
2018-05-10T07:26:24.028Z,1843.50
2018-05-10T07:27:24.036Z,1777.60
2018-05-10T07:28:24.041Z,1883.40
2018-05-10T07:29:24.045Z,1624.90
2018-05-10T07:30:24.051Z,1705.00
2018-05-10T07:31:24.061Z,1920.70
2018-05-10T07:32:24.061Z,1773.40
2018-05-10T07:33:24.066Z,1711.80
2018-05-10T07:34:24.072Z,1911.90
2018-05-10T07:35:24.079Z,1948.80
2018-05-10T07:36:24.082Z,1810.00
2018-05-10T07:37:24.088Z,1622.90
2018-05-10T07:38:24.095Z,1933.80
2018-05-10T07:39:24.100Z,1872.40
2018-05-10T07:40:24.104Z,1751.80
2018-05-10T07:41:24.110Z,1962.50
2018-05-10T07:42:24.117Z,1999.90
2018-05-10T07:43:24.121Z,1814.00
2018-05-10T07:44:24.126Z,1848.10
2018-05-10T07:45:24.136Z,1867.00
2018-05-10T07:46:24.139Z,1844.20
2018-05-10T07:47:24.163Z,1999.90
2018-05-10T07:48:24.151Z,1977.60
2018-05-10T07:49:24.161Z,1993.50
2018-05-10T07:50:24.161Z,1786.70
2018-05-10T07:51:24.169Z,1935.10
2018-05-10T07:52:24.172Z,1904.70
2018-05-10T07:53:24.180Z,1999.90
2018-05-10T07:54:24.184Z,1959.90
2018-05-10T07:55:24.190Z,1994.00
2018-05-10T07:56:24.194Z,1973.20
2018-05-10T07:57:24.203Z,1999.90
2018-05-10T07:58:24.208Z,1846.30
2018-05-10T07:59:24.214Z,1764.30
2018-05-10T08:00:24.220Z,1874.90
2018-05-10T08:01:24.228Z,1987.50
2018-05-10T08:02:24.290Z,1770.30
2018-05-10T08:03:24.238Z,1922.50
2018-05-10T08:04:24.245Z,1826.30
2018-05-10T08:05:24.251Z,1824.90
2018-05-10T08:06:24.257Z,1999.90
2018-05-10T08:07:24.263Z,1999.90
2018-05-10T08:08:24.270Z,1954.90
2018-05-10T08:09:24.279Z,1999.90
2018-05-10T08:10:24.280Z,1859.00
2018-05-10T08:11:24.287Z,1841.20
2018-05-10T08:12:24.292Z,1613.40
2018-05-10T08:13:24.298Z,1999.90
2018-05-10T08:14:24.304Z,1965.00
2018-05-10T08:15:24.309Z,1752.90
2018-05-10T08:16:24.314Z,1909.50
2018-05-10T08:17:24.320Z,1950.90
2018-05-10T08:18:24.325Z,1782.90
2018-05-10T08:19:24.334Z,1635.40
2018-05-10T08:20:24.337Z,1805.00
2018-05-10T08:21:24.342Z,1666.20
2018-05-10T08:22:24.348Z,1846.00
2018-05-10T08:23:24.353Z,1883.10
2018-05-10T08:24:24.359Z,1891.30
2018-05-10T08:25:24.365Z,1702.00
2018-05-10T08:26:24.370Z,1724.60
2018-05-10T08:27:24.376Z,1828.70
2018-05-10T08:28:24.381Z,1945.30
2018-05-10T08:29:24.386Z,1796.90
2018-05-10T08:30:24.392Z,1766.40
2018-05-10T08:31:24.398Z,1744.70
2018-05-10T08:32:24.403Z,1886.10
2018-05-10T08:33:24.409Z,1612.60
2018-05-10T08:34:24.415Z,1537.80
2018-05-10T08:35:24.421Z,1751.00
2018-05-10T08:36:24.447Z,1999.90
2018-05-10T08:37:24.431Z,1999.90
2018-05-10T08:38:24.438Z,1939.40
2018-05-10T08:39:24.443Z,1799.00
2018-05-10T08:40:24.448Z,1939.00
2018-05-10T08:41:24.460Z,1999.90
2018-05-10T08:42:24.461Z,1999.90
2018-05-10T08:43:24.472Z,1999.90
2018-05-10T08:44:24.472Z,1999.90
2018-05-10T08:45:24.479Z,1999.90
2018-05-10T08:46:24.486Z,1999.90
2018-05-10T08:47:24.491Z,1916.60
2018-05-10T08:48:24.497Z,1980.90
2018-05-10T08:49:24.504Z,1875.70
2018-05-10T08:50:24.510Z,1890.70
2018-05-10T08:51:24.518Z,1873.90
2018-05-10T08:52:24.521Z,1894.70
2018-05-10T08:53:24.529Z,1812.90
2018-05-10T08:54:24.535Z,1719.50
2018-05-10T08:55:24.541Z,1837.30
2018-05-10T08:56:24.546Z,1938.90
2018-05-10T08:57:24.552Z,1769.60
2018-05-10T08:58:24.559Z,1695.70
2018-05-10T08:59:24.565Z,1863.00
2018-05-10T09:00:24.571Z,1893.20
2018-05-10T09:01:24.578Z,1676.30
2018-05-10T09:02:24.582Z,1677.20
2018-05-10T09:03:24.589Z,1683.10
2018-05-10T09:04:24.594Z,1725.80
2018-05-10T09:05:24.600Z,1775.00
2018-05-10T09:06:24.607Z,1776.70
2018-05-10T09:07:24.665Z,1714.10
2018-05-10T09:08:24.617Z,1727.00
2018-05-10T09:09:24.623Z,1838.00
2018-05-10T09:10:24.629Z,1742.70
2018-05-10T09:11:24.635Z,1999.90
2018-05-10T09:12:24.640Z,1942.00
2018-05-10T09:13:24.647Z,1718.60
2018-05-10T09:14:24.653Z,1980.40
2018-05-10T09:15:24.659Z,1846.00
2018-05-10T09:16:24.663Z,1704.60
2018-05-10T09:17:24.669Z,1999.90
2018-05-10T09:18:24.675Z,1999.70
2018-05-10T09:19:24.679Z,1999.90
2018-05-10T09:20:24.746Z,1608.00
2018-05-10T09:21:24.691Z,1656.00
2018-05-10T09:22:24.697Z,1832.30
2018-05-10T09:23:24.705Z,1709.90
2018-05-10T09:24:24.708Z,1862.90
2018-05-10T09:25:24.715Z,1960.10
2018-05-10T09:26:24.720Z,1857.90
2018-05-10T09:27:24.728Z,1884.00
2018-05-10T09:28:24.736Z,1611.90
2018-05-10T09:29:24.738Z,1622.90
2018-05-10T09:30:24.743Z,1587.10
2018-05-10T09:31:24.749Z,1562.40
2018-05-10T09:32:24.754Z,1557.50
2018-05-10T09:33:24.759Z,1517.60
2018-05-10T09:34:24.767Z,1725.20
2018-05-10T09:35:24.774Z,1683.30
2018-05-10T09:36:24.776Z,1453.30
2018-05-10T09:37:24.781Z,1662.50
2018-05-10T09:38:24.795Z,1911.00
2018-05-10T09:39:24.814Z,1762.00
2018-05-10T09:40:24.800Z,1692.60
2018-05-10T09:41:24.806Z,1778.40
2018-05-10T09:42:24.812Z,1864.80
2018-05-10T09:43:24.818Z,1652.70
2018-05-10T09:44:24.822Z,1744.90
2018-05-10T09:45:24.828Z,1619.20
2018-05-10T09:46:24.834Z,1611.00
2018-05-10T09:47:24.844Z,1706.20
2018-05-10T09:48:24.846Z,1531.10
2018-05-10T09:49:24.851Z,1576.80
2018-05-10T09:50:24.859Z,1782.50
2018-05-10T09:51:24.863Z,1999.90
2018-05-10T09:52:24.867Z,1680.50
2018-05-10T09:53:24.878Z,1792.70
2018-05-10T09:54:24.880Z,1837.60
2018-05-10T09:55:24.884Z,1898.10
2018-05-10T09:56:24.893Z,1682.10
2018-05-10T09:57:24.895Z,1872.10
2018-05-10T09:58:24.903Z,1764.20
2018-05-10T09:59:24.907Z,1968.30
2018-05-10T10:00:24.912Z,1528.50
2018-05-10T10:01:24.917Z,1612.50
2018-05-10T10:02:24.924Z,1849.20
2018-05-10T10:03:24.930Z,1781.10
2018-05-10T10:04:24.938Z,1816.40
2018-05-10T10:05:24.939Z,1555.40
2018-05-10T10:06:24.945Z,1719.10
2018-05-10T10:07:24.950Z,1779.80
2018-05-10T10:08:24.955Z,1959.10
2018-05-10T10:09:24.961Z,1607.60
2018-05-10T10:10:24.966Z,1596.30
2018-05-10T10:11:24.972Z,1670.30
2018-05-10T10:12:24.977Z,1762.50
2018-05-10T10:13:24.985Z,1661.10
2018-05-10T10:14:24.989Z,1679.80
2018-05-10T10:15:24.994Z,1745.50
2018-05-10T10:16:24.997Z,1751.40
2018-05-10T10:17:25.004Z,1783.80
2018-05-10T10:18:25.012Z,1753.90
2018-05-10T10:19:25.018Z,1823.80
2018-05-10T10:20:25.020Z,1906.10
2018-05-10T10:21:25.026Z,1746.70
2018-05-10T10:22:25.033Z,1706.60
2018-05-10T10:23:25.037Z,1610.40
2018-05-10T10:24:25.043Z,1890.90
2018-05-10T10:25:25.049Z,1826.00
2018-05-10T10:26:25.053Z,1721.10
2018-05-10T10:27:25.061Z,1760.90
2018-05-10T10:28:25.067Z,1571.10
2018-05-10T10:29:25.090Z,1810.20
2018-05-10T10:30:25.074Z,1741.70
2018-05-10T10:31:25.079Z,1830.20
2018-05-10T10:32:25.143Z,1888.80
2018-05-10T10:33:25.095Z,1847.90
2018-05-10T10:34:25.120Z,1685.70
2018-05-10T10:35:25.101Z,1723.00
2018-05-10T10:36:25.106Z,1909.60
2018-05-10T10:37:25.109Z,1780.60
2018-05-10T10:38:25.117Z,1730.60
2018-05-10T10:39:25.121Z,1963.70
2018-05-10T10:40:25.126Z,1999.90
2018-05-10T10:41:25.135Z,1868.50
2018-05-10T10:42:25.137Z,1948.10
2018-05-10T10:43:25.142Z,1746.40
2018-05-10T10:44:25.146Z,1577.80
2018-05-10T10:45:25.241Z,1799.00
2018-05-10T10:46:25.156Z,1614.10
2018-05-10T10:47:25.160Z,1503.00
2018-05-10T10:48:25.165Z,1650.00
2018-05-10T10:49:25.188Z,1753.40
2018-05-10T10:50:25.177Z,1730.90
2018-05-10T10:51:25.180Z,1758.50
2018-05-10T10:52:25.184Z,1847.60
2018-05-10T10:53:25.189Z,1959.00
2018-05-10T10:54:25.195Z,1729.00
2018-05-10T10:55:25.199Z,1775.30
2018-05-10T10:56:25.204Z,1892.20
2018-05-10T10:57:25.210Z,1847.50
2018-05-10T10:58:25.216Z,1728.20
2018-05-10T10:59:25.218Z,1777.40
2018-05-10T11:00:25.226Z,1775.90
2018-05-10T11:01:25.227Z,1999.90
2018-05-10T11:02:25.232Z,1778.90
2018-05-10T11:03:25.237Z,1822.30
2018-05-10T11:04:25.261Z,1999.90
2018-05-10T11:05:25.246Z,1999.90
2018-05-10T11:06:25.253Z,1905.40
2018-05-10T11:07:25.261Z,1690.10
2018-05-10T11:08:25.259Z,1717.30
2018-05-10T11:09:25.265Z,1967.80
2018-05-10T11:10:25.269Z,1999.90
2018-05-10T11:11:25.274Z,1999.90
2018-05-10T11:12:25.278Z,1999.90
2018-05-10T11:13:25.286Z,1761.30
2018-05-10T11:14:25.288Z,1822.50
2018-05-10T11:15:25.293Z,1747.60
2018-05-10T11:16:25.297Z,1753.90
2018-05-10T11:17:25.301Z,1643.60
2018-05-10T11:18:25.309Z,1926.50
2018-05-10T11:19:25.312Z,1735.70
2018-05-10T11:20:25.317Z,1818.10
2018-05-10T11:21:25.321Z,1999.90
2018-05-10T11:22:25.325Z,1743.70
2018-05-10T11:23:25.331Z,1840.40
2018-05-10T11:24:25.334Z,1584.60
2018-05-10T11:25:25.340Z,1760.30
2018-05-10T11:26:25.344Z,1739.70
2018-05-10T11:27:25.351Z,1918.20
2018-05-10T11:28:25.353Z,1999.90
2018-05-10T11:29:25.399Z,1952.60
2018-05-10T11:30:25.363Z,1999.90
2018-05-10T11:31:25.368Z,1652.40
2018-05-10T11:32:25.372Z,1753.40
2018-05-10T11:33:25.377Z,1999.90
2018-05-10T11:34:25.380Z,1999.90
2018-05-10T11:35:25.386Z,1995.10
2018-05-10T11:36:25.390Z,1999.90
2018-05-10T11:37:25.395Z,1999.90
2018-05-10T11:38:25.401Z,1999.90
2018-05-10T11:39:25.405Z,1999.90
2018-05-10T11:40:25.415Z,1871.30
2018-05-10T11:41:25.414Z,1999.90
2018-05-10T11:42:25.419Z,1773.70
2018-05-10T11:43:25.426Z,1844.40
2018-05-10T11:44:25.492Z,1816.00
2018-05-10T11:45:25.433Z,1885.40
2018-05-10T11:46:25.438Z,1722.60
2018-05-10T11:47:25.443Z,1970.10
2018-05-10T11:48:25.448Z,1999.90
2018-05-10T11:49:25.470Z,1940.50
2018-05-10T11:50:25.461Z,1952.50
2018-05-10T11:51:25.463Z,1881.00
2018-05-10T11:52:25.468Z,1883.20
2018-05-10T11:53:25.471Z,1837.10
2018-05-10T11:54:25.503Z,1999.90
2018-05-10T11:55:25.482Z,1812.80
2018-05-10T11:56:25.490Z,1953.30
2018-05-10T11:57:25.518Z,1914.80
2018-05-10T11:58:25.495Z,1879.20
2018-05-10T11:59:25.499Z,1806.30
2018-05-10T12:00:25.505Z,1832.40
2018-05-10T12:01:25.510Z,1770.90
2018-05-10T12:02:25.517Z,1856.20
2018-05-10T12:03:25.518Z,1756.80
2018-05-10T12:04:25.531Z,1905.80
2018-05-10T12:05:25.527Z,1911.80
2018-05-10T12:06:25.532Z,1761.30